createdAt,value
2019-05-29T00:00:25.403Z,978.29
2019-05-29T00:01:25.304Z,978.28
2019-05-29T00:02:25.294Z,978.32
2019-05-29T00:03:25.354Z,978.29
2019-05-29T00:04:25.273Z,978.34
2019-05-29T00:05:25.336Z,978.32
2019-05-29T00:06:25.234Z,978.38
2019-05-29T00:07:25.235Z,978.37
2019-05-29T00:08:25.237Z,978.43
2019-05-29T00:09:25.555Z,978.43
2019-05-29T00:10:25.196Z,978.52
2019-05-29T00:11:25.247Z,978.51
2019-05-29T00:12:25.237Z,978.54
2019-05-29T00:13:25.178Z,978.56
2019-05-29T00:14:27.444Z,978.56
2019-05-29T00:15:25.150Z,978.56
2019-05-29T00:16:25.200Z,978.59
2019-05-29T00:17:25.121Z,978.56
2019-05-29T00:18:25.132Z,978.60
2019-05-29T00:19:25.210Z,978.61
2019-05-29T00:20:25.083Z,978.62
2019-05-29T00:21:25.134Z,978.59
2019-05-29T00:22:25.064Z,978.61
2019-05-29T00:23:25.064Z,978.61
2019-05-29T00:24:25.307Z,978.65
2019-05-29T00:25:25.105Z,978.64
2019-05-29T00:26:25.015Z,978.63
2019-05-29T00:27:25.038Z,978.68
2019-05-29T00:28:25.006Z,978.63
2019-05-29T00:29:25.007Z,978.62
2019-05-29T00:30:25.051Z,978.65
2019-05-29T00:31:24.969Z,978.65
2019-05-29T00:32:25.001Z,978.65
2019-05-29T00:33:24.950Z,978.65
2019-05-29T00:34:25.061Z,978.68
2019-05-29T00:35:24.910Z,978.66
2019-05-29T00:36:24.952Z,978.64
2019-05-29T00:37:24.891Z,978.65
2019-05-29T00:38:24.992Z,978.67
2019-05-29T00:39:25.012Z,978.67
2019-05-29T00:40:24.852Z,978.66
2019-05-29T00:41:24.895Z,978.71
2019-05-29T00:42:24.845Z,978.68
2019-05-29T00:43:24.935Z,978.66
2019-05-29T00:44:33.972Z,978.71
2019-05-29T00:45:25.816Z,978.70
2019-05-29T00:46:24.837Z,978.68
2019-05-29T00:47:24.787Z,978.71
2019-05-29T00:48:24.877Z,978.71
2019-05-29T00:49:24.800Z,978.71
2019-05-29T00:50:24.798Z,978.73
2019-05-29T00:51:24.730Z,978.74
2019-05-29T00:52:24.739Z,978.70
2019-05-29T00:53:24.711Z,978.75
2019-05-29T00:54:24.821Z,978.76
2019-05-29T00:55:24.692Z,978.80
2019-05-29T00:56:24.711Z,978.81
2019-05-29T00:57:24.662Z,978.80
2019-05-29T00:58:24.754Z,978.80
2019-05-29T00:59:24.675Z,978.81
2019-05-29T01:00:24.645Z,978.81
2019-05-29T01:01:24.655Z,978.83
2019-05-29T01:02:24.615Z,978.79
2019-05-29T01:03:24.695Z,978.79
2019-05-29T01:04:24.606Z,978.82
2019-05-29T01:05:24.582Z,978.83
2019-05-29T01:06:24.568Z,978.82
2019-05-29T01:07:24.659Z,978.81
2019-05-29T01:08:24.549Z,978.80
2019-05-29T01:09:24.650Z,978.84
2019-05-29T01:10:24.570Z,978.86
2019-05-29T01:11:24.524Z,978.84
2019-05-29T01:12:24.628Z,978.87
2019-05-29T01:13:24.504Z,978.85
2019-05-29T01:14:26.542Z,978.84
2019-05-29T01:15:24.473Z,978.84
2019-05-29T01:16:24.483Z,978.87
2019-05-29T01:17:24.453Z,978.90
2019-05-29T01:18:24.504Z,978.86
2019-05-29T01:19:24.423Z,978.88
2019-05-29T01:20:24.497Z,978.86
2019-05-29T01:21:24.400Z,978.90
2019-05-29T01:22:24.487Z,978.84
2019-05-29T01:23:24.377Z,978.95
2019-05-29T01:24:24.419Z,978.95
2019-05-29T01:25:24.377Z,978.92
2019-05-29T01:26:24.371Z,978.95
2019-05-29T01:27:24.429Z,978.97
2019-05-29T01:28:24.329Z,978.92
2019-05-29T01:29:24.362Z,978.96
2019-05-29T01:30:24.324Z,978.93
2019-05-29T01:31:24.292Z,978.97
2019-05-29T01:32:24.363Z,978.97
2019-05-29T01:33:25.032Z,979.00
2019-05-29T01:34:24.303Z,978.97
2019-05-29T01:35:24.255Z,979.00
2019-05-29T01:36:24.232Z,979.01
2019-05-29T01:37:24.416Z,979.03
2019-05-29T01:38:24.276Z,979.02
2019-05-29T01:39:24.196Z,979.03
2019-05-29T01:40:27.816Z,979.02
2019-05-29T01:41:24.188Z,978.99
2019-05-29T01:42:24.168Z,979.03
2019-05-29T01:43:24.218Z,979.07
2019-05-29T01:44:24.193Z,979.08
2019-05-29T01:45:24.201Z,979.11
2019-05-29T01:46:24.119Z,979.13
2019-05-29T01:47:24.100Z,979.17
2019-05-29T01:48:24.152Z,979.12
2019-05-29T01:49:24.083Z,979.15
2019-05-29T01:50:24.132Z,979.13
2019-05-29T01:51:24.062Z,979.16
2019-05-29T01:52:24.053Z,979.20
2019-05-29T01:53:24.033Z,979.23
2019-05-29T01:54:24.063Z,979.22
2019-05-29T01:55:24.049Z,979.27
2019-05-29T01:56:24.105Z,979.28
2019-05-29T01:57:24.075Z,979.30
2019-05-29T01:58:23.986Z,979.31
2019-05-29T01:59:24.082Z,979.28
2019-05-29T02:00:24.220Z,979.32
2019-05-29T02:01:24.110Z,979.33
2019-05-29T02:02:24.016Z,979.33
2019-05-29T02:03:24.054Z,979.35
2019-05-29T02:04:24.247Z,979.32
2019-05-29T02:05:24.168Z,979.34
2019-05-29T02:06:25.000Z,979.34
2019-05-29T02:07:24.056Z,979.39
2019-05-29T02:08:24.298Z,979.42
2019-05-29T02:09:24.281Z,979.42
2019-05-29T02:10:24.329Z,979.49
2019-05-29T02:11:23.923Z,979.46
2019-05-29T02:12:24.464Z,979.51
2019-05-29T02:13:23.827Z,979.49
2019-05-29T02:14:24.821Z,979.52
2019-05-29T02:15:32.058Z,979.54
2019-05-29T02:16:24.945Z,979.53
2019-05-29T02:17:23.899Z,979.59
2019-05-29T02:18:25.014Z,979.63
2019-05-29T02:19:24.054Z,979.61
2019-05-29T02:20:23.747Z,979.64
2019-05-29T02:21:24.839Z,979.60
2019-05-29T02:22:23.709Z,979.66
2019-05-29T02:23:24.188Z,979.67
2019-05-29T02:24:23.700Z,979.73
2019-05-29T02:25:24.357Z,979.67
2019-05-29T02:26:24.425Z,979.71
2019-05-29T02:27:23.715Z,979.80
2019-05-29T02:28:24.594Z,979.78
2019-05-29T02:29:24.793Z,979.82
2019-05-29T02:30:27.742Z,979.82
2019-05-29T02:31:26.582Z,979.84
2019-05-29T02:32:23.687Z,979.85
2019-05-29T02:33:24.266Z,979.91
2019-05-29T02:34:25.570Z,979.90
2019-05-29T02:35:24.868Z,979.93
2019-05-29T02:36:24.549Z,979.97
2019-05-29T02:37:24.396Z,980.00
2019-05-29T02:38:24.995Z,980.00
2019-05-29T02:39:25.685Z,979.97
2019-05-29T02:40:25.594Z,979.99
2019-05-29T02:41:26.189Z,980.06
2019-05-29T02:42:24.999Z,980.09
2019-05-29T02:43:26.009Z,980.06
2019-05-29T02:44:23.950Z,980.09
2019-05-29T02:45:26.125Z,980.12
2019-05-29T02:46:25.997Z,980.15
2019-05-29T02:47:23.664Z,980.17
2019-05-29T02:48:24.962Z,980.20
2019-05-29T02:49:23.836Z,980.20
2019-05-29T02:50:24.077Z,980.18
2019-05-29T02:51:24.221Z,980.24
2019-05-29T02:52:24.273Z,980.22
2019-05-29T02:53:24.484Z,980.26
2019-05-29T02:54:24.944Z,980.31
2019-05-29T02:55:24.417Z,980.34
2019-05-29T02:56:24.738Z,980.31
2019-05-29T02:57:24.531Z,980.35
2019-05-29T02:58:24.084Z,980.36
2019-05-29T02:59:24.026Z,980.33
2019-05-29T03:00:23.561Z,980.35
2019-05-29T03:01:24.064Z,980.35
2019-05-29T03:02:23.446Z,980.33
2019-05-29T03:03:23.932Z,980.39
2019-05-29T03:04:24.041Z,980.40
2019-05-29T03:05:23.862Z,980.44
2019-05-29T03:06:24.072Z,980.44
2019-05-29T03:07:24.325Z,980.46
2019-05-29T03:08:24.589Z,980.47
2019-05-29T03:09:24.621Z,980.46
2019-05-29T03:10:24.783Z,980.54
2019-05-29T03:11:25.049Z,980.53
2019-05-29T03:12:24.900Z,980.57
2019-05-29T03:13:23.889Z,980.56
2019-05-29T03:14:23.218Z,980.56
2019-05-29T03:15:23.590Z,980.61
2019-05-29T03:16:23.822Z,980.63
2019-05-29T03:17:23.714Z,980.65
2019-05-29T03:18:23.946Z,980.70
2019-05-29T03:19:23.871Z,980.71
2019-05-29T03:20:23.899Z,980.73
2019-05-29T03:21:24.062Z,980.71
2019-05-29T03:22:24.090Z,980.80
2019-05-29T03:23:24.237Z,980.81
2019-05-29T03:24:24.495Z,980.80
2019-05-29T03:25:24.307Z,980.85
2019-05-29T03:26:25.305Z,980.86
2019-05-29T03:27:23.015Z,980.93
2019-05-29T03:28:22.976Z,980.88
2019-05-29T03:29:23.026Z,980.95
2019-05-29T03:30:22.938Z,980.88
2019-05-29T03:31:23.208Z,980.92
2019-05-29T03:32:22.919Z,980.95
2019-05-29T03:33:23.008Z,980.97
2019-05-29T03:34:22.899Z,980.98
2019-05-29T03:35:22.939Z,981.00
2019-05-29T03:36:22.875Z,981.06
2019-05-29T03:37:22.882Z,981.04
2019-05-29T03:38:22.861Z,981.07
2019-05-29T03:39:22.921Z,981.04
2019-05-29T03:40:22.833Z,981.04
2019-05-29T03:41:22.852Z,981.09
2019-05-29T03:42:22.845Z,981.07
2019-05-29T03:43:22.804Z,981.11
2019-05-29T03:44:22.854Z,981.13
2019-05-29T03:45:22.765Z,981.19
2019-05-29T03:46:31.324Z,981.16
2019-05-29T03:47:23.774Z,981.21
2019-05-29T03:48:22.749Z,981.26
2019-05-29T03:49:22.729Z,981.24
2019-05-29T03:50:22.767Z,981.24
2019-05-29T03:51:22.698Z,981.28
2019-05-29T03:52:22.761Z,981.27
2019-05-29T03:53:23.799Z,981.29
2019-05-29T03:54:22.680Z,981.29
2019-05-29T03:55:22.710Z,981.34
2019-05-29T03:56:22.656Z,981.35
2019-05-29T03:57:22.701Z,981.40
2019-05-29T03:58:22.623Z,981.40
2019-05-29T03:59:22.673Z,981.40
2019-05-29T04:00:22.582Z,981.36
2019-05-29T04:01:22.614Z,981.41
2019-05-29T04:02:22.614Z,981.40
2019-05-29T04:03:22.655Z,981.39
2019-05-29T04:04:22.554Z,981.42
2019-05-29T04:05:22.586Z,981.43
2019-05-29T04:06:22.547Z,981.43
2019-05-29T04:07:22.605Z,981.46
2019-05-29T04:08:22.517Z,981.49
2019-05-29T04:09:22.508Z,981.47
2019-05-29T04:10:22.528Z,981.50
2019-05-29T04:11:22.487Z,981.56
2019-05-29T04:12:22.513Z,981.57
2019-05-29T04:13:22.462Z,981.58
2019-05-29T04:14:22.444Z,981.56
2019-05-29T04:15:22.436Z,981.61
2019-05-29T04:16:22.442Z,981.58
2019-05-29T04:17:22.422Z,981.61
2019-05-29T04:18:22.473Z,981.63
2019-05-29T04:19:22.382Z,981.65
2019-05-29T04:20:22.376Z,981.65
2019-05-29T04:21:29.623Z,981.70
2019-05-29T04:22:22.375Z,981.66
2019-05-29T04:23:22.425Z,981.73
2019-05-29T04:24:22.341Z,981.74
2019-05-29T04:25:22.327Z,981.74
2019-05-29T04:26:22.327Z,981.73
2019-05-29T04:27:22.318Z,981.77
2019-05-29T04:28:23.389Z,981.77
2019-05-29T04:29:22.268Z,981.82
2019-05-29T04:30:22.281Z,981.77
2019-05-29T04:31:22.251Z,981.78
2019-05-29T04:32:22.271Z,981.86
2019-05-29T04:33:22.220Z,981.81
2019-05-29T04:35:52.367Z,981.95
2019-05-29T04:36:38.879Z,981.98
2019-05-29T04:37:44.843Z,981.99
2019-05-29T04:38:39.721Z,982.04
2019-05-29T04:39:39.107Z,982.08
2019-05-29T04:40:37.913Z,982.04
2019-05-29T04:41:39.245Z,982.05
2019-05-29T04:42:37.652Z,982.08
2019-05-29T04:43:37.643Z,982.15
2019-05-29T04:44:38.918Z,982.15
2019-05-29T04:45:38.102Z,982.22
2019-05-29T04:46:38.400Z,982.25
2019-05-29T04:47:37.395Z,982.25
2019-05-29T04:48:38.330Z,982.29
2019-05-29T04:49:37.961Z,982.32
2019-05-29T04:50:38.649Z,982.33
2019-05-29T04:51:37.479Z,982.38
2019-05-29T04:52:37.965Z,982.42
2019-05-29T04:53:37.696Z,982.44
2019-05-29T04:54:37.600Z,982.47
2019-05-29T04:55:37.080Z,982.46
2019-05-29T04:56:37.024Z,982.49
2019-05-29T04:57:37.275Z,982.50
2019-05-29T04:58:37.059Z,982.52
2019-05-29T04:59:37.128Z,982.57
2019-05-29T05:00:37.261Z,982.59
2019-05-29T05:01:37.164Z,982.59
2019-05-29T05:02:37.283Z,982.62
2019-05-29T05:03:37.214Z,982.65
2019-05-29T05:04:37.289Z,982.69
2019-05-29T05:05:37.449Z,982.65
2019-05-29T05:06:37.389Z,982.68
2019-05-29T05:07:37.454Z,982.69
2019-05-29T05:08:37.443Z,982.72
2019-05-29T05:09:37.566Z,982.75
2019-05-29T05:10:37.856Z,982.73
2019-05-29T05:11:37.589Z,982.78
2019-05-29T05:12:37.835Z,982.74
2019-05-29T05:13:37.794Z,982.78
2019-05-29T05:14:37.727Z,982.82
2019-05-29T05:15:37.871Z,982.83
2019-05-29T05:16:37.809Z,982.84
2019-05-29T05:17:37.921Z,982.87
2019-05-29T05:18:36.592Z,982.90
2019-05-29T05:19:36.583Z,982.89
2019-05-29T05:20:36.547Z,982.91
2019-05-29T05:21:36.617Z,982.92
2019-05-29T05:22:36.586Z,982.92
2019-05-29T05:23:36.544Z,982.97
2019-05-29T05:24:36.518Z,982.98
2019-05-29T05:25:36.536Z,983.01
2019-05-29T05:26:36.561Z,983.02
2019-05-29T05:27:36.584Z,982.96
2019-05-29T05:28:36.556Z,983.09
2019-05-29T05:29:36.449Z,983.08
2019-05-29T05:30:36.536Z,983.16
2019-05-29T05:31:36.554Z,983.18
2019-05-29T05:32:36.885Z,983.11
2019-05-29T05:33:36.714Z,983.17
2019-05-29T05:34:36.875Z,983.18
2019-05-29T05:35:36.804Z,983.17
2019-05-29T05:36:36.781Z,983.20
2019-05-29T05:37:36.951Z,983.22
2019-05-29T05:38:36.815Z,983.20
2019-05-29T05:39:37.269Z,983.25
2019-05-29T05:40:39.485Z,983.25
2019-05-29T05:41:36.884Z,983.27
2019-05-29T05:42:37.100Z,983.26
2019-05-29T05:43:36.914Z,983.27
2019-05-29T05:44:37.034Z,983.27
2019-05-29T05:45:37.064Z,983.32
2019-05-29T05:46:37.159Z,983.31
2019-05-29T05:47:52.976Z,983.31
2019-05-29T05:48:37.323Z,983.35
2019-05-29T05:49:37.324Z,983.38
2019-05-29T05:50:37.286Z,983.34
2019-05-29T05:51:39.691Z,983.38
2019-05-29T05:52:37.538Z,983.40
2019-05-29T05:53:37.460Z,983.44
2019-05-29T05:54:37.468Z,983.39
2019-05-29T05:55:37.607Z,983.45
2019-05-29T05:56:36.146Z,983.48
2019-05-29T05:57:37.639Z,983.42
2019-05-29T05:58:36.146Z,983.45
2019-05-29T05:59:36.196Z,983.48
2019-05-29T06:00:36.096Z,983.50
2019-05-29T06:01:36.140Z,983.51
2019-05-29T06:02:36.080Z,983.53
2019-05-29T06:03:36.069Z,983.57
2019-05-29T06:04:36.068Z,983.55
2019-05-29T06:05:38.209Z,983.56
2019-05-29T06:06:36.253Z,983.56
2019-05-29T06:07:36.196Z,983.55
2019-05-29T06:08:36.182Z,983.56
2019-05-29T06:09:36.214Z,983.59
2019-05-29T06:10:36.156Z,983.55
2019-05-29T06:11:36.179Z,983.55
2019-05-29T06:12:36.563Z,983.59
2019-05-29T06:13:36.329Z,983.55
2019-05-29T06:14:36.492Z,983.62
2019-05-29T06:15:36.487Z,983.62
2019-05-29T06:16:36.463Z,983.61
2019-05-29T06:17:36.610Z,983.58
2019-05-29T06:18:36.568Z,983.61
2019-05-29T06:19:36.701Z,983.66
2019-05-29T06:20:36.745Z,983.64
2019-05-29T06:21:36.693Z,983.65
2019-05-29T06:22:36.929Z,983.64
2019-05-29T06:23:36.951Z,983.66
2019-05-29T06:24:37.174Z,983.65
2019-05-29T06:25:36.897Z,983.73
2019-05-29T06:26:36.786Z,983.71
2019-05-29T06:27:37.006Z,983.73
2019-05-29T06:28:37.119Z,983.72
2019-05-29T06:29:37.115Z,983.79
2019-05-29T06:30:36.601Z,983.82
2019-05-29T06:31:37.168Z,983.87
2019-05-29T06:32:35.744Z,983.84
2019-05-29T06:33:37.351Z,983.84
2019-05-29T06:34:35.826Z,983.87
2019-05-29T06:35:35.966Z,983.85
2019-05-29T06:36:35.726Z,983.83
2019-05-29T06:37:35.699Z,983.84
2019-05-29T06:38:35.761Z,983.87
2019-05-29T06:39:37.728Z,983.86
2019-05-29T06:40:36.286Z,983.91
2019-05-29T06:41:35.750Z,983.88
2019-05-29T06:42:35.784Z,983.95
2019-05-29T06:43:35.824Z,983.89
2019-05-29T06:44:36.626Z,983.92
2019-05-29T06:45:35.820Z,983.91
2019-05-29T06:46:36.208Z,983.98
2019-05-29T06:47:36.442Z,983.98
2019-05-29T06:48:46.762Z,983.98
2019-05-29T06:49:36.563Z,983.97
2019-05-29T06:50:35.556Z,984.01
2019-05-29T06:51:35.643Z,984.02
2019-05-29T06:52:35.524Z,984.02
2019-05-29T06:53:35.815Z,984.09
2019-05-29T06:54:35.791Z,984.08
2019-05-29T06:55:35.842Z,984.10
2019-05-29T06:56:35.617Z,984.10
2019-05-29T06:57:36.082Z,984.14
2019-05-29T06:58:35.911Z,984.17
2019-05-29T06:59:36.092Z,984.16
2019-05-29T07:00:37.175Z,984.13
2019-05-29T07:01:35.421Z,984.17
2019-05-29T07:02:36.361Z,984.18
2019-05-29T07:03:35.663Z,984.21
2019-05-29T07:04:36.223Z,984.21
2019-05-29T07:05:35.605Z,984.24
2019-05-29T07:06:36.447Z,984.24
2019-05-29T07:07:36.060Z,984.27
2019-05-29T07:08:40.173Z,984.25
2019-05-29T07:09:36.898Z,984.26
2019-05-29T07:10:36.385Z,984.33
2019-05-29T07:11:35.307Z,984.33
2019-05-29T07:12:36.265Z,984.33
2019-05-29T07:13:37.629Z,984.35
2019-05-29T07:14:36.343Z,984.38
2019-05-29T07:15:36.509Z,984.34
2019-05-29T07:16:45.193Z,984.33
2019-05-29T07:17:38.585Z,984.37
2019-05-29T07:18:36.446Z,984.44
2019-05-29T07:19:48.939Z,984.45
2019-05-29T07:20:38.535Z,984.45
2019-05-29T07:21:36.623Z,984.45
2019-05-29T07:22:36.801Z,984.42
2019-05-29T07:23:35.177Z,984.45
2019-05-29T07:24:35.198Z,984.49
2019-05-29T07:25:35.152Z,984.51
2019-05-29T07:26:35.224Z,984.51
2019-05-29T07:27:35.145Z,984.47
2019-05-29T07:28:35.157Z,984.50
2019-05-29T07:29:35.114Z,984.48
2019-05-29T07:30:35.193Z,984.53
2019-05-29T07:31:36.819Z,984.54
2019-05-29T07:32:35.086Z,984.59
2019-05-29T07:33:35.066Z,984.61
2019-05-29T07:34:49.918Z,984.62
2019-05-29T07:35:37.136Z,984.66
2019-05-29T07:36:35.115Z,984.65
2019-05-29T07:37:35.029Z,984.68
2019-05-29T07:38:35.050Z,984.70
2019-05-29T07:39:34.999Z,984.68
2019-05-29T07:40:38.429Z,984.68
2019-05-29T07:41:34.951Z,984.67
2019-05-29T07:42:35.015Z,984.71
2019-05-29T07:43:34.952Z,984.74
2019-05-29T07:44:35.052Z,984.77
2019-05-29T07:45:34.946Z,984.76
2019-05-29T07:46:34.987Z,984.77
2019-05-29T07:47:34.905Z,984.79
2019-05-29T07:48:34.909Z,984.83
2019-05-29T07:49:38.945Z,984.83
2019-05-29T07:50:35.896Z,984.82
2019-05-29T07:51:34.867Z,984.89
2019-05-29T07:52:34.902Z,984.92
2019-05-29T07:53:34.847Z,984.85
2019-05-29T07:54:34.950Z,984.90
2019-05-29T07:55:34.829Z,984.90
2019-05-29T07:56:34.870Z,984.88
2019-05-29T07:57:34.790Z,984.90
2019-05-29T07:58:34.804Z,984.92
2019-05-29T07:59:34.773Z,984.90
2019-05-29T08:00:37.990Z,984.87
2019-05-29T08:01:35.743Z,984.92
2019-05-29T08:02:35.804Z,984.91
2019-05-29T08:03:34.733Z,984.92
2019-05-29T08:04:34.729Z,984.96
2019-05-29T08:05:34.836Z,985.01
2019-05-29T08:06:34.715Z,984.98
2019-05-29T08:07:34.717Z,984.99
2019-05-29T08:08:34.676Z,985.00
2019-05-29T08:09:34.657Z,985.03
2019-05-29T08:10:34.668Z,985.05
2019-05-29T08:11:34.697Z,985.00
2019-05-29T08:12:34.675Z,985.03
2019-05-29T08:13:34.730Z,985.09
2019-05-29T08:14:34.613Z,985.08
2019-05-29T08:15:51.200Z,985.05
2019-05-29T08:16:35.581Z,985.02
2019-05-29T08:17:34.608Z,985.00
2019-05-29T08:18:34.574Z,985.01
2019-05-29T08:19:34.643Z,985.06
2019-05-29T08:20:34.652Z,985.02
2019-05-29T08:21:34.542Z,985.01
2019-05-29T08:22:34.978Z,985.03
2019-05-29T08:23:34.504Z,985.05
2019-05-29T08:24:34.564Z,985.06
2019-05-29T08:25:34.495Z,985.06
2019-05-29T08:26:34.507Z,985.10
2019-05-29T08:27:34.460Z,985.09
2019-05-29T08:28:34.550Z,985.09
2019-05-29T08:29:34.437Z,985.09
2019-05-29T08:30:34.535Z,985.10
2019-05-29T08:31:34.440Z,985.12
2019-05-29T08:32:34.412Z,985.10
2019-05-29T08:33:34.490Z,985.11
2019-05-29T08:34:34.406Z,985.10
2019-05-29T08:35:34.432Z,985.14
2019-05-29T08:36:34.381Z,985.18
2019-05-29T08:37:34.354Z,985.19
2019-05-29T08:38:34.333Z,985.14
2019-05-29T08:39:36.897Z,985.20
2019-05-29T08:40:34.314Z,985.23
2019-05-29T08:41:34.377Z,985.24
2019-05-29T08:42:34.294Z,985.26
2019-05-29T08:43:42.492Z,985.23
2019-05-29T08:44:34.268Z,985.22
2019-05-29T08:45:34.305Z,985.27
2019-05-29T08:46:34.260Z,985.30
2019-05-29T08:47:34.248Z,985.24
2019-05-29T08:48:34.239Z,985.28
2019-05-29T08:49:34.269Z,985.27
2019-05-29T08:50:34.199Z,985.30
2019-05-29T08:51:34.242Z,985.29
2019-05-29T08:52:34.192Z,985.31
2019-05-29T08:53:34.179Z,985.29
2019-05-29T08:54:34.211Z,985.32
2019-05-29T08:55:34.144Z,985.28
2019-05-29T08:56:34.229Z,985.30
2019-05-29T08:57:34.123Z,985.33
2019-05-29T08:58:37.140Z,985.37
2019-05-29T08:59:34.104Z,985.39
2019-05-29T09:00:34.125Z,985.34
2019-05-29T09:01:34.106Z,985.44
2019-05-29T09:02:34.158Z,985.41
2019-05-29T09:03:34.140Z,985.44
2019-05-29T09:04:34.066Z,985.44
2019-05-29T09:05:34.067Z,985.46
2019-05-29T09:06:34.044Z,985.49
2019-05-29T09:07:34.120Z,985.51
2019-05-29T09:08:33.998Z,985.50
2019-05-29T09:09:33.989Z,985.51
2019-05-29T09:10:34.020Z,985.55
2019-05-29T09:11:33.980Z,985.51
2019-05-29T09:12:34.041Z,985.58
2019-05-29T09:13:33.942Z,985.57
2019-05-29T09:14:33.934Z,985.56
2019-05-29T09:15:33.943Z,985.59
2019-05-29T09:16:33.933Z,985.66
2019-05-29T09:17:34.683Z,985.65
2019-05-29T09:18:33.875Z,985.69
2019-05-29T09:19:33.882Z,985.66
2019-05-29T09:20:57.936Z,985.71
2019-05-29T09:21:34.868Z,985.69
2019-05-29T09:22:33.945Z,985.69
2019-05-29T09:23:33.837Z,985.67
2019-05-29T09:24:33.799Z,985.67
2019-05-29T09:25:33.809Z,985.70
2019-05-29T09:26:33.830Z,985.70
2019-05-29T09:27:33.791Z,985.65
2019-05-29T09:28:33.832Z,985.64
2019-05-29T09:29:33.782Z,985.65
2019-05-29T09:30:33.762Z,985.69
2019-05-29T09:31:33.772Z,985.71
2019-05-29T09:32:49.344Z,985.71
2019-05-29T09:33:34.733Z,985.72
2019-05-29T09:34:33.753Z,985.70
2019-05-29T09:35:33.804Z,985.74
2019-05-29T09:36:33.707Z,985.72
2019-05-29T09:37:33.783Z,985.73
2019-05-29T09:38:33.656Z,985.67
2019-05-29T09:39:33.678Z,985.63
2019-05-29T09:40:33.648Z,985.70
2019-05-29T09:41:33.768Z,985.70
2019-05-29T09:42:33.619Z,985.68
2019-05-29T09:43:33.648Z,985.67
2019-05-29T09:44:38.857Z,985.73
2019-05-29T09:45:34.611Z,985.69
2019-05-29T09:46:33.662Z,985.73
2019-05-29T09:47:33.598Z,985.78
2019-05-29T09:48:48.795Z,985.72
2019-05-29T09:49:34.544Z,985.78
2019-05-29T09:50:49.432Z,985.75
2019-05-29T09:51:34.624Z,985.77
2019-05-29T09:52:33.526Z,985.78
2019-05-29T09:53:34.557Z,985.92
2019-05-29T09:54:33.636Z,985.87
2019-05-29T09:55:33.569Z,985.88
2019-05-29T09:56:33.456Z,985.91
2019-05-29T09:57:33.488Z,985.93
2019-05-29T09:58:33.477Z,985.97
2019-05-29T09:59:33.448Z,985.98
2019-05-29T10:00:33.519Z,985.97
2019-05-29T10:01:33.421Z,985.95
2019-05-29T10:02:33.430Z,986.03
2019-05-29T10:03:33.401Z,985.97
2019-05-29T10:04:33.483Z,985.96
2019-05-29T10:05:33.376Z,985.97
2019-05-29T10:06:33.413Z,986.03
2019-05-29T10:07:33.361Z,986.02
2019-05-29T10:08:33.343Z,986.03
2019-05-29T10:09:33.326Z,986.05
2019-05-29T10:10:33.394Z,986.05
2019-05-29T10:11:33.285Z,986.07
2019-05-29T10:12:33.375Z,986.02
2019-05-29T10:13:33.291Z,986.09
2019-05-29T10:14:33.375Z,986.07
2019-05-29T10:15:33.272Z,986.04
2019-05-29T10:16:33.300Z,986.06
2019-05-29T10:17:33.250Z,986.06
2019-05-29T10:18:33.222Z,986.08
2019-05-29T10:19:33.300Z,986.11
2019-05-29T10:20:33.200Z,986.06
2019-05-29T10:21:41.151Z,986.06
2019-05-29T10:22:34.193Z,986.06
2019-05-29T10:23:33.171Z,985.99
2019-05-29T10:24:33.166Z,985.94
2019-05-29T10:25:33.218Z,986.01
2019-05-29T10:26:33.144Z,985.99
2019-05-29T10:27:33.205Z,985.99
2019-05-29T10:28:49.905Z,986.03
2019-05-29T10:29:34.105Z,986.06
2019-05-29T10:30:33.146Z,986.06
2019-05-29T10:31:33.087Z,986.04
2019-05-29T10:32:33.129Z,986.09
2019-05-29T10:33:33.058Z,986.06
2019-05-29T10:34:33.048Z,986.09
2019-05-29T10:35:33.089Z,986.06
2019-05-29T10:36:33.019Z,986.12
2019-05-29T10:37:33.074Z,986.11
2019-05-29T10:38:33.004Z,986.11
2019-05-29T10:39:33.004Z,986.07
2019-05-29T10:40:32.993Z,986.06
2019-05-29T10:41:34.013Z,986.06
2019-05-29T10:42:33.023Z,986.08
2019-05-29T10:43:34.969Z,986.07
2019-05-29T10:44:32.946Z,986.05
2019-05-29T10:45:32.977Z,986.03
2019-05-29T10:46:32.917Z,986.02
2019-05-29T10:47:32.955Z,986.04
2019-05-29T10:48:32.927Z,986.06
2019-05-29T10:49:32.949Z,986.00
2019-05-29T10:50:32.919Z,986.01
2019-05-29T10:51:32.857Z,985.91
2019-05-29T10:52:33.001Z,985.96
2019-05-29T10:53:32.849Z,985.97
2019-05-29T10:54:32.889Z,985.96
2019-05-29T10:55:32.825Z,985.96
2019-05-29T10:56:32.833Z,986.00
2019-05-29T10:57:32.806Z,985.99
2019-05-29T10:58:47.858Z,985.96
2019-05-29T10:59:33.762Z,985.98
2019-05-29T11:00:32.794Z,986.00
2019-05-29T11:01:33.843Z,985.99
2019-05-29T11:02:32.835Z,985.96
2019-05-29T11:03:32.737Z,985.96
2019-05-29T11:04:32.768Z,985.99
2019-05-29T11:05:32.736Z,985.99
2019-05-29T11:06:32.687Z,985.97
2019-05-29T11:07:32.687Z,985.97
2019-05-29T11:08:32.797Z,985.92
2019-05-29T11:09:44.073Z,985.89
2019-05-29T11:10:33.654Z,985.88
2019-05-29T11:11:32.651Z,985.95
2019-05-29T11:12:32.641Z,985.91
2019-05-29T11:13:32.721Z,985.94
2019-05-29T11:14:32.604Z,985.91
2019-05-29T11:15:32.612Z,986.00
2019-05-29T11:16:32.572Z,985.96
2019-05-29T11:17:32.563Z,985.93
2019-05-29T11:18:32.574Z,985.97
2019-05-29T11:19:32.598Z,985.93
2019-05-29T11:20:32.535Z,985.93
2019-05-29T11:21:32.525Z,985.95
2019-05-29T11:22:33.156Z,985.91
2019-05-29T11:23:32.520Z,985.93
2019-05-29T11:24:33.558Z,985.91
2019-05-29T11:25:32.479Z,985.86
2019-05-29T11:26:33.479Z,985.90
2019-05-29T11:27:32.461Z,985.94
2019-05-29T11:28:32.460Z,985.95
2019-05-29T11:29:32.473Z,985.94
2019-05-29T11:30:32.421Z,985.87
2019-05-29T11:31:32.512Z,985.88
2019-05-29T11:32:32.473Z,985.89
2019-05-29T11:33:32.413Z,985.91
2019-05-29T11:34:32.575Z,985.92
2019-05-29T11:35:32.484Z,985.90
2019-05-29T11:36:32.358Z,985.86
2019-05-29T11:37:32.427Z,985.92
2019-05-29T11:38:32.349Z,985.89
2019-05-29T11:39:32.357Z,985.89
2019-05-29T11:40:32.360Z,986.01
2019-05-29T11:41:32.391Z,986.05
2019-05-29T11:42:32.290Z,986.02
2019-05-29T11:43:32.369Z,986.04
2019-05-29T11:44:32.457Z,986.06
2019-05-29T11:45:35.427Z,986.08
2019-05-29T11:46:33.462Z,986.09
2019-05-29T11:47:32.222Z,986.05
2019-05-29T11:48:32.247Z,986.05
2019-05-29T11:49:32.226Z,985.98
2019-05-29T11:50:36.034Z,986.05
2019-05-29T11:51:32.184Z,986.03
2019-05-29T11:52:42.601Z,985.99
2019-05-29T11:53:34.225Z,986.00
2019-05-29T11:54:33.185Z,986.09
2019-05-29T11:55:32.194Z,986.04
2019-05-29T11:56:32.207Z,986.02
2019-05-29T11:57:32.144Z,986.07
2019-05-29T11:58:32.545Z,986.04
2019-05-29T11:59:32.099Z,986.03
2019-05-29T12:00:32.091Z,986.01
2019-05-29T12:01:48.962Z,986.10
2019-05-29T12:02:33.640Z,986.09
2019-05-29T12:03:32.085Z,986.12
2019-05-29T12:04:32.053Z,986.06
2019-05-29T12:05:32.043Z,985.97
2019-05-29T12:06:32.023Z,985.94
2019-05-29T12:07:32.004Z,985.94
2019-05-29T12:08:32.074Z,985.95
2019-05-29T12:09:33.738Z,985.96
2019-05-29T12:10:31.986Z,985.97
2019-05-29T12:11:31.959Z,985.93
2019-05-29T12:12:33.023Z,985.90
2019-05-29T12:13:31.958Z,985.94
2019-05-29T12:14:32.048Z,985.93
2019-05-29T12:15:31.930Z,985.88
2019-05-29T12:16:31.979Z,985.89
2019-05-29T12:17:31.919Z,985.93
2019-05-29T12:18:31.911Z,985.98
2019-05-29T12:19:31.912Z,985.96
2019-05-29T12:20:31.943Z,985.93
2019-05-29T12:21:31.853Z,985.97
2019-05-29T12:22:31.885Z,985.94
2019-05-29T12:23:31.833Z,985.95
2019-05-29T12:24:31.873Z,985.93
2019-05-29T12:25:31.805Z,985.92
2019-05-29T12:26:31.796Z,985.94
2019-05-29T12:27:31.797Z,985.94
2019-05-29T12:28:31.898Z,985.90
2019-05-29T12:29:31.786Z,985.96